sensor_id;sensor_type;location;lat;lon;timestamp;temperature;humidity
65040;HTU21D;51606;45.000;38.612;2023-07-30T04:41:24;33.26;50.09
65040;HTU21D;51606;45.000;38.612;2023-07-30T04:43:56;33.80;49.34
65040;HTU21D;51606;45.000;38.612;2023-07-30T04:46:22;34.06;48.99
65040;HTU21D;51606;45.000;38.612;2023-07-30T04:48:49;34.44;48.31
65040;HTU21D;51606;45.000;38.612;2023-07-30T04:51:18;34.80;47.76
65040;HTU21D;51606;45.000;38.612;2023-07-30T04:53:46;34.96;47.41
65040;HTU21D;51606;45.000;38.612;2023-07-30T04:56:13;35.14;47.15
65040;HTU21D;51606;45.000;38.612;2023-07-30T04:58:39;35.60;46.39
65040;HTU21D;51606;45.000;38.612;2023-07-30T05:01:07;35.92;45.90
65040;HTU21D;51606;45.000;38.612;2023-07-30T05:03:33;36.03;45.53
65040;HTU21D;51606;45.000;38.612;2023-07-30T05:06:00;36.04;45.52
65040;HTU21D;51606;45.000;38.612;2023-07-30T05:08:26;36.40;44.90
65040;HTU21D;51606;45.000;38.612;2023-07-30T05:10:53;36.96;44.06
65040;HTU21D;51606;45.000;38.612;2023-07-30T05:13:19;37.29;43.55
65040;HTU21D;51606;45.000;38.612;2023-07-30T05:15:45;37.61;43.06
65040;HTU21D;51606;45.000;38.612;2023-07-30T05:18:12;37.92;42.68
65040;HTU21D;51606;45.000;38.612;2023-07-30T05:20:39;38.00;42.48
65040;HTU21D;51606;45.000;38.612;2023-07-30T05:23:06;38.26;42.05
65040;HTU21D;51606;45.000;38.612;2023-07-30T05:25:33;38.25;41.87
65040;HTU21D;51606;45.000;38.612;2023-07-30T05:27:59;38.02;41.96
65040;HTU21D;51606;45.000;38.612;2023-07-30T05:30:25;37.60;42.22
65040;HTU21D;51606;45.000;38.612;2023-07-30T05:32:51;37.81;41.84
65040;HTU21D;51606;45.000;38.612;2023-07-30T05:35:18;38.37;41.04
65040;HTU21D;51606;45.000;38.612;2023-07-30T05:37:44;38.88;40.28
65040;HTU21D;51606;45.000;38.612;2023-07-30T05:40:11;38.69;40.33
65040;HTU21D;51606;45.000;38.612;2023-07-30T05:42:37;38.52;40.31
65040;HTU21D;51606;45.000;38.612;2023-07-30T05:45:04;38.41;40.39
65040;HTU21D;51606;45.000;38.612;2023-07-30T05:47:30;38.54;39.92
65040;HTU21D;51606;45.000;38.612;2023-07-30T05:49:57;38.21;40.06
65040;HTU21D;51606;45.000;38.612;2023-07-30T05:52:23;38.05;40.18
65040;HTU21D;51606;45.000;38.612;2023-07-30T05:54:49;38.26;39.81
65040;HTU21D;51606;45.000;38.612;2023-07-30T05:57:15;38.43;39.49
65040;HTU21D;51606;45.000;38.612;2023-07-30T05:59:42;39.14;38.58
65040;HTU21D;51606;45.000;38.612;2023-07-30T06:02:08;39.73;37.74
65040;HTU21D;51606;45.000;38.612;2023-07-30T06:04:34;40.03;37.18
65040;HTU21D;51606;45.000;38.612;2023-07-30T06:07:02;39.33;37.53
65040;HTU21D;51606;45.000;38.612;2023-07-30T06:09:29;39.22;37.82
65040;HTU21D;51606;45.000;38.612;2023-07-30T06:11:58;39.10;37.45
65040;HTU21D;51606;45.000;38.612;2023-07-30T06:14:26;39.11;37.44
65040;HTU21D;51606;45.000;38.612;2023-07-30T06:16:53;38.83;37.64
65040;HTU21D;51606;45.000;38.612;2023-07-30T06:19:19;38.69;37.48
65040;HTU21D;51606;45.000;38.612;2023-07-30T06:21:46;38.75;37.36
65040;HTU21D;51606;45.000;38.612;2023-07-30T06:24:12;38.65;37.08
65040;HTU21D;51606;45.000;38.612;2023-07-30T06:26:39;38.69;36.89
65040;HTU21D;51606;45.000;38.612;2023-07-30T06:29:06;38.84;36.56
65040;HTU21D;51606;45.000;38.612;2023-07-30T06:31:33;39.19;35.92
65040;HTU21D;51606;45.000;38.612;2023-07-30T06:34:00;39.39;35.49
65040;HTU21D;51606;45.000;38.612;2023-07-30T06:36:26;39.62;35.18
65040;HTU21D;51606;45.000;38.612;2023-07-30T06:38:53;39.89;34.95
65040;HTU21D;51606;45.000;38.612;2023-07-30T06:41:20;39.79;34.95
65040;HTU21D;51606;45.000;38.612;2023-07-30T06:43:47;39.47;35.10
65040;HTU21D;51606;45.000;38.612;2023-07-30T06:46:14;38.82;35.72
65040;HTU21D;51606;45.000;38.612;2023-07-30T06:48:41;38.89;35.82
65040;HTU21D;51606;45.000;38.612;2023-07-30T06:51:09;39.08;35.28
65040;HTU21D;51606;45.000;38.612;2023-07-30T06:53:35;39.08;35.08
65040;HTU21D;51606;45.000;38.612;2023-07-30T06:56:02;38.84;35.18
65040;HTU21D;51606;45.000;38.612;2023-07-30T06:58:29;38.26;35.69
65040;HTU21D;51606;45.000;38.612;2023-07-30T07:00:55;37.88;35.89
65040;HTU21D;51606;45.000;38.612;2023-07-30T07:03:22;37.30;36.55
65040;HTU21D;51606;45.000;38.612;2023-07-30T07:05:57;37.29;35.96
65040;HTU21D;51606;45.000;38.612;2023-07-30T07:08:24;37.18;36.23
65040;HTU21D;51606;45.000;38.612;2023-07-30T07:10:50;37.04;36.11
65040;HTU21D;51606;45.000;38.612;2023-07-30T07:13:16;37.21;35.70
65040;HTU21D;51606;45.000;38.612;2023-07-30T07:15:44;37.42;35.21
65040;HTU21D;51606;45.000;38.612;2023-07-30T07:18:11;37.48;35.01
65040;HTU21D;51606;45.000;38.612;2023-07-30T07:20:39;37.23;35.28
65040;HTU21D;51606;45.000;38.612;2023-07-30T07:23:06;37.08;35.46
65040;HTU21D;51606;45.000;38.612;2023-07-30T07:25:33;36.78;35.69
65040;HTU21D;51606;45.000;38.612;2023-07-30T07:27:59;36.37;36.14
65040;HTU21D;51606;45.000;38.612;2023-07-30T07:30:25;36.03;36.30
65040;HTU21D;51606;45.000;38.612;2023-07-30T07:32:52;35.47;36.87
65040;HTU21D;51606;45.000;38.612;2023-07-30T07:35:20;35.60;36.72
65040;HTU21D;51606;45.000;38.612;2023-07-30T07:37:46;35.66;36.41
65040;HTU21D;51606;45.000;38.612;2023-07-30T07:40:13;35.31;36.75
65040;HTU21D;51606;45.000;38.612;2023-07-30T07:42:39;34.91;36.88
65040;HTU21D;51606;45.000;38.612;2023-07-30T07:45:07;34.45;37.24
65040;HTU21D;51606;45.000;38.612;2023-07-30T07:47:33;34.17;37.27
65040;HTU21D;51606;45.000;38.612;2023-07-30T07:50:00;33.91;37.48
65040;HTU21D;51606;45.000;38.612;2023-07-30T07:52:26;33.97;37.51
65040;HTU21D;51606;45.000;38.612;2023-07-30T07:54:53;34.48;36.87
65040;HTU21D;51606;45.000;38.612;2023-07-30T07:57:19;34.85;36.50
65040;HTU21D;51606;45.000;38.612;2023-07-30T07:59:46;35.11;36.27
65040;HTU21D;51606;45.000;38.612;2023-07-30T08:02:13;35.14;36.25
65040;HTU21D;51606;45.000;38.612;2023-07-30T08:04:39;35.35;36.23
65040;HTU21D;51606;45.000;38.612;2023-07-30T08:07:06;35.64;35.87
65040;HTU21D;51606;45.000;38.612;2023-07-30T08:09:35;35.72;35.60
65040;HTU21D;51606;45.000;38.612;2023-07-30T08:12:02;35.71;35.95
65040;HTU21D;51606;45.000;38.612;2023-07-30T08:14:29;35.87;35.70
65040;HTU21D;51606;45.000;38.612;2023-07-30T08:16:56;35.97;35.69
65040;HTU21D;51606;45.000;38.612;2023-07-30T08:19:22;36.21;35.44
65040;HTU21D;51606;45.000;38.612;2023-07-30T08:21:49;36.33;35.40
65040;HTU21D;51606;45.000;38.612;2023-07-30T08:24:15;36.46;35.29
65040;HTU21D;51606;45.000;38.612;2023-07-30T08:26:42;36.62;35.03
65040;HTU21D;51606;45.000;38.612;2023-07-30T08:29:08;36.59;35.16
65040;HTU21D;51606;45.000;38.612;2023-07-30T08:31:36;36.56;35.18
65040;HTU21D;51606;45.000;38.612;2023-07-30T08:34:02;36.54;35.08
65040;HTU21D;51606;45.000;38.612;2023-07-30T08:36:29;36.41;35.18
65040;HTU21D;51606;45.000;38.612;2023-07-30T08:38:55;36.23;35.13
65040;HTU21D;51606;45.000;38.612;2023-07-30T08:41:22;35.86;35.28
65040;HTU21D;51606;45.000;38.612;2023-07-30T08:43:49;35.38;35.31
65040;HTU21D;51606;45.000;38.612;2023-07-30T08:46:17;34.90;35.84
65040;HTU21D;51606;45.000;38.612;2023-07-30T08:48:44;34.77;35.76
65040;HTU21D;51606;45.000;38.612;2023-07-30T08:51:11;34.47;35.81
65040;HTU21D;51606;45.000;38.612;2023-07-30T08:53:39;34.23;36.05
65040;HTU21D;51606;45.000;38.612;2023-07-30T08:56:07;34.30;36.03
65040;HTU21D;51606;45.000;38.612;2023-07-30T08:58:34;34.34;35.80
65040;HTU21D;51606;45.000;38.612;2023-07-30T09:01:05;34.12;35.90
65040;HTU21D;51606;45.000;38.612;2023-07-30T09:03:36;33.90;36.15
65040;HTU21D;51606;45.000;38.612;2023-07-30T09:06:03;33.74;36.26
65040;HTU21D;51606;45.000;38.612;2023-07-30T09:08:30;33.78;36.29
65040;HTU21D;51606;45.000;38.612;2023-07-30T09:11:07;33.61;36.43
65040;HTU21D;51606;45.000;38.612;2023-07-30T09:13:38;33.61;36.40
65040;HTU21D;51606;45.000;38.612;2023-07-30T09:16:12;33.81;36.20
65040;HTU21D;51606;45.000;38.612;2023-07-30T09:18:39;33.75;36.28
65040;HTU21D;51606;45.000;38.612;2023-07-30T09:21:06;33.62;36.50
65040;HTU21D;51606;45.000;38.612;2023-07-30T09:23:42;33.40;36.74
65040;HTU21D;51606;45.000;38.612;2023-07-30T09:26:09;33.40;36.65
65040;HTU21D;51606;45.000;38.612;2023-07-30T09:28:36;33.26;36.88
65040;HTU21D;51606;45.000;38.612;2023-07-30T09:31:05;33.31;36.79
65040;HTU21D;51606;45.000;38.612;2023-07-30T09:33:32;33.34;36.71
65040;HTU21D;51606;45.000;38.612;2023-07-30T09:36:03;33.30;36.85
65040;HTU21D;51606;45.000;38.612;2023-07-30T09:38:30;33.28;36.75
65040;HTU21D;51606;45.000;38.612;2023-07-30T09:41:02;33.04;37.05
65040;HTU21D;51606;45.000;38.612;2023-07-30T09:43:32;32.92;37.22
65040;HTU21D;51606;45.000;38.612;2023-07-30T09:46:03;33.03;37.27
65040;HTU21D;51606;45.000;38.612;2023-07-30T09:48:31;33.13;37.03
65040;HTU21D;51606;45.000;38.612;2023-07-30T09:51:02;32.97;37.27
65040;HTU21D;51606;45.000;38.612;2023-07-30T09:53:33;32.52;37.50
65040;HTU21D;51606;45.000;38.612;2023-07-30T09:56:03;32.29;37.91
65040;HTU21D;51606;45.000;38.612;2023-07-30T09:58:31;32.33;37.96
65040;HTU21D;51606;45.000;38.612;2023-07-30T10:00:58;32.55;37.85
65040;HTU21D;51606;45.000;38.612;2023-07-30T10:03:27;32.70;37.50
65040;HTU21D;51606;45.000;38.612;2023-07-30T10:05:57;32.55;37.74
65040;HTU21D;51606;45.000;38.612;2023-07-30T10:08:29;32.57;37.77
65040;HTU21D;51606;45.000;38.612;2023-07-30T10:10:58;32.62;37.74
65040;HTU21D;51606;45.000;38.612;2023-07-30T10:13:27;32.68;37.69
65040;HTU21D;51606;45.000;38.612;2023-07-30T10:15:55;32.71;37.75
65040;HTU21D;51606;45.000;38.612;2023-07-30T10:18:41;32.82;37.75
65040;HTU21D;51606;45.000;38.612;2023-07-30T10:21:09;33.08;37.55
65040;HTU21D;51606;45.000;38.612;2023-07-30T10:24:06;33.34;37.27
65040;HTU21D;51606;45.000;38.612;2023-07-30T10:26:34;33.40;37.33
65040;HTU21D;51606;45.000;38.612;2023-07-30T10:29:18;32.96;37.58
65040;HTU21D;51606;45.000;38.612;2023-07-30T10:31:56;32.83;37.98
65040;HTU21D;51606;45.000;38.612;2023-07-30T10:34:27;33.02;37.80
65040;HTU21D;51606;45.000;38.612;2023-07-30T10:37:10;33.20;37.63
65040;HTU21D;51606;45.000;38.612;2023-07-30T10:39:36;33.19;37.70
65040;HTU21D;51606;45.000;38.612;2023-07-30T10:42:03;33.07;37.85
65040;HTU21D;51606;45.000;38.612;2023-07-30T10:44:34;33.05;37.77
65040;HTU21D;51606;45.000;38.612;2023-07-30T10:47:02;32.86;38.02
65040;HTU21D;51606;45.000;38.612;2023-07-30T10:49:38;32.76;38.00
65040;HTU21D;51606;45.000;38.612;2023-07-30T10:52:07;32.76;38.11
65040;HTU21D;51606;45.000;38.612;2023-07-30T10:54:34;32.89;38.06
65040;HTU21D;51606;45.000;38.612;2023-07-30T10:57:01;33.13;37.84
65040;HTU21D;51606;45.000;38.612;2023-07-30T10:59:34;33.40;37.52
65040;HTU21D;51606;45.000;38.612;2023-07-30T11:02:03;33.47;37.40
65040;HTU21D;51606;45.000;38.612;2023-07-30T11:04:33;33.30;37.66
65040;HTU21D;51606;45.000;38.612;2023-07-30T11:07:00;33.23;37.62
65040;HTU21D;51606;45.000;38.612;2023-07-30T11:09:27;32.85;37.93
65040;HTU21D;51606;45.000;38.612;2023-07-30T11:11:55;32.69;38.14
65040;HTU21D;51606;45.000;38.612;2023-07-30T11:14:23;32.64;38.08
65040;HTU21D;51606;45.000;38.612;2023-07-30T11:16:56;32.57;38.15
65040;HTU21D;51606;45.000;38.612;2023-07-30T11:19:29;32.61;38.04
65040;HTU21D;51606;45.000;38.612;2023-07-30T11:21:56;32.61;38.05
65040;HTU21D;51606;45.000;38.612;2023-07-30T11:24:43;32.67;37.83
65040;HTU21D;51606;45.000;38.612;2023-07-30T11:27:10;32.46;38.13
65040;HTU21D;51606;45.000;38.612;2023-07-30T11:29:36;32.46;38.08
65040;HTU21D;51606;45.000;38.612;2023-07-30T11:32:03;32.57;38.05
65040;HTU21D;51606;45.000;38.612;2023-07-30T11:34:30;32.79;37.78
65040;HTU21D;51606;45.000;38.612;2023-07-30T11:36:58;32.76;37.78
65040;HTU21D;51606;45.000;38.612;2023-07-30T11:39:25;32.84;37.73
65040;HTU21D;51606;45.000;38.612;2023-07-30T11:41:52;32.84;37.66
65040;HTU21D;51606;45.000;38.612;2023-07-30T11:44:37;32.66;37.67
65040;HTU21D;51606;45.000;38.612;2023-07-30T11:47:05;32.32;38.11
65040;HTU21D;51606;45.000;38.612;2023-07-30T11:49:34;32.16;38.30
65040;HTU21D;51606;45.000;38.612;2023-07-30T11:52:07;32.27;38.14
65040;HTU21D;51606;45.000;38.612;2023-07-30T11:54:35;32.39;38.11
65040;HTU21D;51606;45.000;38.612;2023-07-30T11:57:01;32.59;37.88
65040;HTU21D;51606;45.000;38.612;2023-07-30T11:59:28;32.52;37.86
65040;HTU21D;51606;45.000;38.612;2023-07-30T12:01:57;32.55;37.93
65040;HTU21D;51606;45.000;38.612;2023-07-30T12:04:24;32.74;37.77
65040;HTU21D;51606;45.000;38.612;2023-07-30T12:06:52;32.74;37.84
65040;HTU21D;51606;45.000;38.612;2023-07-30T12:09:21;32.59;37.99
65040;HTU21D;51606;45.000;38.612;2023-07-30T12:11:59;32.61;37.99
65040;HTU21D;51606;45.000;38.612;2023-07-30T12:14:42;32.62;38.00
65040;HTU21D;51606;45.000;38.612;2023-07-30T12:17:09;32.70;38.00
65040;HTU21D;51606;45.000;38.612;2023-07-30T12:19:36;32.78;37.98
65040;HTU21D;51606;45.000;38.612;2023-07-30T12:22:05;32.57;38.04
65040;HTU21D;51606;45.000;38.612;2023-07-30T12:24:31;32.38;38.23
65040;HTU21D;51606;45.000;38.612;2023-07-30T12:26:58;32.20;38.36
65040;HTU21D;51606;45.000;38.612;2023-07-30T12:29:25;32.08;38.43
65040;HTU21D;51606;45.000;38.612;2023-07-30T12:31:52;31.95;38.51
65040;HTU21D;51606;45.000;38.612;2023-07-30T12:34:19;31.85;38.53
65040;HTU21D;51606;45.000;38.612;2023-07-30T12:36:46;31.68;38.62
65040;HTU21D;51606;45.000;38.612;2023-07-30T12:39:13;31.65;38.68
65040;HTU21D;51606;45.000;38.612;2023-07-30T12:41:40;31.57;38.60
65040;HTU21D;51606;45.000;38.612;2023-07-30T12:44:06;31.50;38.76
65040;HTU21D;51606;45.000;38.612;2023-07-30T12:46:33;31.53;38.72
65040;HTU21D;51606;45.000;38.612;2023-07-30T12:48:59;31.64;38.64
65040;HTU21D;51606;45.000;38.612;2023-07-30T12:51:33;31.70;38.48
65040;HTU21D;51606;45.000;38.612;2023-07-30T12:54:00;31.65;38.61
65040;HTU21D;51606;45.000;38.612;2023-07-30T12:56:26;31.71;38.64
65040;HTU21D;51606;45.000;38.612;2023-07-30T12:58:53;31.80;38.53
65040;HTU21D;51606;45.000;38.612;2023-07-30T13:01:19;31.85;38.51
65040;HTU21D;51606;45.000;38.612;2023-07-30T13:03:46;31.81;38.67
65040;HTU21D;51606;45.000;38.612;2023-07-30T13:06:13;31.84;38.72
65040;HTU21D;51606;45.000;38.612;2023-07-30T13:08:39;31.84;38.73
65040;HTU21D;51606;45.000;38.612;2023-07-30T13:11:06;31.87;38.70
65040;HTU21D;51606;45.000;38.612;2023-07-30T13:13:33;31.80;38.78
65040;HTU21D;51606;45.000;38.612;2023-07-30T13:15:59;31.82;38.84
65040;HTU21D;51606;45.000;38.612;2023-07-30T13:18:28;31.84;38.85
65040;HTU21D;51606;45.000;38.612;2023-07-30T13:20:55;31.81;38.93
65040;HTU21D;51606;45.000;38.612;2023-07-30T13:23:24;31.78;39.00
65040;HTU21D;51606;45.000;38.612;2023-07-30T13:25:55;31.70;39.03
65040;HTU21D;51606;45.000;38.612;2023-07-30T13:28:24;31.54;39.24
65040;HTU21D;51606;45.000;38.612;2023-07-30T13:30:50;31.52;39.29
65040;HTU21D;51606;45.000;38.612;2023-07-30T13:33:18;31.57;39.30
65040;HTU21D;51606;45.000;38.612;2023-07-30T13:35:45;31.55;39.31
65040;HTU21D;51606;45.000;38.612;2023-07-30T13:38:11;31.51;39.33
65040;HTU21D;51606;45.000;38.612;2023-07-30T13:40:40;31.52;39.41
65040;HTU21D;51606;45.000;38.612;2023-07-30T13:43:06;31.51;39.39
65040;HTU21D;51606;45.000;38.612;2023-07-30T13:45:33;31.45;39.49
65040;HTU21D;51606;45.000;38.612;2023-07-30T13:47:59;31.52;39.43
65040;HTU21D;51606;45.000;38.612;2023-07-30T13:50:26;31.55;39.42
65040;HTU21D;51606;45.000;38.612;2023-07-30T13:52:52;31.53;39.47
65040;HTU21D;51606;45.000;38.612;2023-07-30T13:55:18;31.56;39.51
65040;HTU21D;51606;45.000;38.612;2023-07-30T13:57:46;31.61;39.54
65040;HTU21D;51606;45.000;38.612;2023-07-30T14:00:12;31.59;39.56
65040;HTU21D;51606;45.000;38.612;2023-07-30T14:02:39;31.54;39.60
65040;HTU21D;51606;45.000;38.612;2023-07-30T14:05:06;31.59;39.68
65040;HTU21D;51606;45.000;38.612;2023-07-30T14:07:32;31.65;39.61
65040;HTU21D;51606;45.000;38.612;2023-07-30T14:09:58;31.60;39.67
65040;HTU21D;51606;45.000;38.612;2023-07-30T14:12:25;31.48;39.89
65040;HTU21D;51606;45.000;38.612;2023-07-30T14:14:51;31.36;40.07
65040;HTU21D;51606;45.000;38.612;2023-07-30T14:17:18;31.23;40.35
65040;HTU21D;51606;45.000;38.612;2023-07-30T14:19:44;31.13;40.61
65040;HTU21D;51606;45.000;38.612;2023-07-30T14:22:11;31.00;40.70
65040;HTU21D;51606;45.000;38.612;2023-07-30T14:24:37;30.93;40.92
65040;HTU21D;51606;45.000;38.612;2023-07-30T14:27:04;30.85;41.20
65040;HTU21D;51606;45.000;38.612;2023-07-30T14:29:31;30.74;41.38
65040;HTU21D;51606;45.000;38.612;2023-07-30T14:31:57;30.68;41.53
65040;HTU21D;51606;45.000;38.612;2023-07-30T14:34:24;30.61;41.62
65040;HTU21D;51606;45.000;38.612;2023-07-30T14:36:50;30.48;41.74
65040;HTU21D;51606;45.000;38.612;2023-07-30T14:39:17;30.34;41.95
65040;HTU21D;51606;45.000;38.612;2023-07-30T14:41:44;30.17;42.13
65040;HTU21D;51606;45.000;38.612;2023-07-30T14:44:10;30.01;42.35
65040;HTU21D;51606;45.000;38.612;2023-07-30T14:46:37;29.89;42.50
65040;HTU21D;51606;45.000;38.612;2023-07-30T14:49:03;29.82;42.55
65040;HTU21D;51606;45.000;38.612;2023-07-30T14:51:30;29.73;42.65
65040;HTU21D;51606;45.000;38.612;2023-07-30T14:53:56;29.70;42.79
65040;HTU21D;51606;45.000;38.612;2023-07-30T14:56:22;29.68;42.90
65040;HTU21D;51606;45.000;38.612;2023-07-30T14:58:49;29.68;43.08
65040;HTU21D;51606;45.000;38.612;2023-07-30T15:01:16;29.66;43.15
65040;HTU21D;51606;45.000;38.612;2023-07-30T15:03:42;29.61;43.15
65040;HTU21D;51606;45.000;38.612;2023-07-30T15:06:09;29.53;43.20
65040;HTU21D;51606;45.000;38.612;2023-07-30T15:08:35;29.44;43.36
65040;HTU21D;51606;45.000;38.612;2023-07-30T15:11:02;29.34;43.55
65040;HTU21D;51606;45.000;38.612;2023-07-30T15:13:28;29.24;43.86
65040;HTU21D;51606;45.000;38.612;2023-07-30T15:15:54;29.14;44.21
65040;HTU21D;51606;45.000;38.612;2023-07-30T15:18:21;29.07;44.46
65040;HTU21D;51606;45.000;38.612;2023-07-30T15:20:50;29.01;44.74
65040;HTU21D;51606;45.000;38.612;2023-07-30T15:23:16;28.93;44.87
65040;HTU21D;51606;45.000;38.612;2023-07-30T15:25:44;28.83;45.12
65040;HTU21D;51606;45.000;38.612;2023-07-30T15:28:11;28.74;45.36
65040;HTU21D;51606;45.000;38.612;2023-07-30T15:30:38;28.67;45.62
65040;HTU21D;51606;45.000;38.612;2023-07-30T15:33:09;28.57;45.87
65040;HTU21D;51606;45.000;38.612;2023-07-30T15:35:36;28.52;46.11
65040;HTU21D;51606;45.000;38.612;2023-07-30T15:38:06;28.47;46.28
65040;HTU21D;51606;45.000;38.612;2023-07-30T15:40:33;28.44;46.24
65040;HTU21D;51606;45.000;38.612;2023-07-30T15:43:02;28.39;46.44
65040;HTU21D;51606;45.000;38.612;2023-07-30T15:45:29;28.39;46.65
65040;HTU21D;51606;45.000;38.612;2023-07-30T15:47:56;28.39;46.73
65040;HTU21D;51606;45.000;38.612;2023-07-30T15:50:24;28.34;46.81
65040;HTU21D;51606;45.000;38.612;2023-07-30T15:52:53;28.26;47.02
65040;HTU21D;51606;45.000;38.612;2023-07-30T15:55:22;28.16;47.25
65040;HTU21D;51606;45.000;38.612;2023-07-30T15:57:49;28.09;47.50
65040;HTU21D;51606;45.000;38.612;2023-07-30T16:00:15;27.99;47.67
65040;HTU21D;51606;45.000;38.612;2023-07-30T16:02:42;27.90;47.83
65040;HTU21D;51606;45.000;38.612;2023-07-30T16:05:10;27.83;48.05
65040;HTU21D;51606;45.000;38.612;2023-07-30T16:07:37;27.76;48.24
65040;HTU21D;51606;45.000;38.612;2023-07-30T16:10:04;27.72;48.40
65040;HTU21D;51606;45.000;38.612;2023-07-30T16:12:31;27.65;48.55
65040;HTU21D;51606;45.000;38.612;2023-07-30T16:14:58;27.57;48.66
65040;HTU21D;51606;45.000;38.612;2023-07-30T16:17:25;27.51;48.79
65040;HTU21D;51606;45.000;38.612;2023-07-30T16:19:51;27.42;48.92
65040;HTU21D;51606;45.000;38.612;2023-07-30T16:22:17;27.36;48.99
65040;HTU21D;51606;45.000;38.612;2023-07-30T16:24:44;27.28;49.11
65040;HTU21D;51606;45.000;38.612;2023-07-30T16:27:10;27.21;49.30
65040;HTU21D;51606;45.000;38.612;2023-07-30T16:29:37;27.11;49.43
65040;HTU21D;51606;45.000;38.612;2023-07-30T16:32:03;27.02;49.54
65040;HTU21D;51606;45.000;38.612;2023-07-30T16:34:30;26.94;49.59
65040;HTU21D;51606;45.000;38.612;2023-07-30T16:36:57;26.86;49.62
65040;HTU21D;51606;45.000;38.612;2023-07-30T16:39:23;26.81;49.62
65040;HTU21D;51606;45.000;38.612;2023-07-30T16:41:50;26.75;49.64
65040;HTU21D;51606;45.000;38.612;2023-07-30T16:44:16;26.68;49.72
65040;HTU21D;51606;45.000;38.612;2023-07-30T16:46:43;26.60;49.80
65040;HTU21D;51606;45.000;38.612;2023-07-30T16:49:09;26.50;50.02
65040;HTU21D;51606;45.000;38.612;2023-07-30T16:51:36;26.43;50.18
65040;HTU21D;51606;45.000;38.612;2023-07-30T16:54:03;26.37;50.37
65040;HTU21D;51606;45.000;38.612;2023-07-30T16:56:30;26.27;50.60
65040;HTU21D;51606;45.000;38.612;2023-07-30T16:59:39;26.21;50.90
65040;HTU21D;51606;45.000;38.612;2023-07-30T17:02:04;26.08;50.98
65040;HTU21D;51606;45.000;38.612;2023-07-30T17:04:30;25.99;51.20
65040;HTU21D;51606;45.000;38.612;2023-07-30T17:06:57;25.92;51.40
65040;HTU21D;51606;45.000;38.612;2023-07-30T17:09:23;25.82;51.57
65040;HTU21D;51606;45.000;38.612;2023-07-30T17:11:50;25.73;51.69
65040;HTU21D;51606;45.000;38.612;2023-07-30T17:14:16;25.65;51.84
65040;HTU21D;51606;45.000;38.612;2023-07-30T17:16:43;25.54;52.01
65040;HTU21D;51606;45.000;38.612;2023-07-30T17:19:10;25.45;52.20
65040;HTU21D;51606;45.000;38.612;2023-07-30T17:21:36;25.35;52.33
65040;HTU21D;51606;45.000;38.612;2023-07-30T17:24:03;25.23;52.56
65040;HTU21D;51606;45.000;38.612;2023-07-30T17:26:30;25.13;52.75
65040;HTU21D;51606;45.000;38.612;2023-07-30T17:28:56;25.00;52.93
65040;HTU21D;51606;45.000;38.612;2023-07-30T17:31:23;24.93;53.12
65040;HTU21D;51606;45.000;38.612;2023-07-30T17:33:50;24.83;53.23
65040;HTU21D;51606;45.000;38.612;2023-07-30T17:36:16;24.73;53.36
65040;HTU21D;51606;45.000;38.612;2023-07-30T17:38:43;24.63;53.48
65040;HTU21D;51606;45.000;38.612;2023-07-30T17:41:10;24.56;53.64
65040;HTU21D;51606;45.000;38.612;2023-07-30T17:43:37;24.46;53.72
65040;HTU21D;51606;45.000;38.612;2023-07-30T17:46:05;24.40;53.83
65040;HTU21D;51606;45.000;38.612;2023-07-30T17:48:32;24.32;53.96
65040;HTU21D;51606;45.000;38.612;2023-07-30T17:50:59;24.26;54.06
65040;HTU21D;51606;45.000;38.612;2023-07-30T17:53:25;24.18;54.13
65040;HTU21D;51606;45.000;38.612;2023-07-30T17:55:52;24.10;54.26
65040;HTU21D;51606;45.000;38.612;2023-07-30T17:58:19;24.03;54.36
65040;HTU21D;51606;45.000;38.612;2023-07-30T18:00:46;23.96;54.49
65040;HTU21D;51606;45.000;38.612;2023-07-30T18:03:14;23.91;54.56
